createdAt,value
2022-09-14T00:01:27.241Z,16.42
2022-09-14T00:03:28.377Z,16.47
2022-09-14T00:05:29.916Z,16.44
2022-09-14T00:07:31.356Z,16.42
2022-09-14T00:09:32.635Z,16.44
2022-09-14T00:11:33.967Z,16.44
2022-09-14T00:13:35.648Z,16.42
2022-09-14T00:15:36.888Z,16.44
2022-09-14T00:17:38.255Z,16.44
2022-09-14T00:19:39.686Z,16.4
2022-09-14T00:21:41.470Z,16.41
2022-09-14T00:23:42.645Z,16.36
2022-09-14T00:25:44.062Z,16.34
2022-09-14T00:27:45.223Z,16.34
2022-09-14T00:29:46.920Z,16.35
2022-09-14T00:31:48.071Z,16.31
2022-09-14T00:33:49.206Z,16.28
2022-09-14T00:35:50.474Z,16.16
2022-09-14T00:37:51.698Z,16.16
2022-09-14T00:39:52.671Z,16.23
2022-09-14T00:41:54.100Z,16.27
2022-09-14T00:43:55.487Z,16.3
2022-09-14T00:45:56.865Z,16.39
2022-09-14T00:47:58.096Z,16.4
2022-09-14T00:49:59.228Z,16.4
2022-09-14T00:52:00.285Z,16.4
2022-09-14T00:54:01.924Z,16.4
2022-09-14T00:56:03.623Z,16.39
2022-09-14T00:58:05.476Z,16.43
2022-09-14T01:00:06.701Z,16.43
2022-09-14T01:02:07.648Z,16.38
2022-09-14T01:04:09.226Z,16.43
2022-09-14T01:06:10.201Z,16.36
2022-09-14T01:08:11.784Z,16.28
2022-09-14T01:10:13.600Z,16.29
2022-09-14T01:12:14.949Z,16.29
2022-09-14T01:14:16.113Z,16.31
2022-09-14T01:16:18.003Z,16.33
2022-09-14T01:18:19.363Z,16.32
2022-09-14T01:20:20.678Z,16.32
2022-09-14T01:24:23.890Z,16.3
2022-09-14T01:26:25.733Z,16.31
2022-09-14T01:28:26.773Z,16.33
2022-09-14T01:30:28.598Z,16.29
2022-09-14T01:32:29.815Z,16.14
2022-09-14T01:34:31.237Z,16.1
2022-09-14T01:36:32.964Z,16.11
2022-09-14T01:38:34.408Z,16.06
2022-09-14T01:40:35.956Z,16.04
2022-09-14T01:42:37.350Z,16.04
2022-09-14T01:44:38.814Z,16.05
2022-09-14T01:46:39.853Z,16.06
2022-09-14T01:48:40.990Z,16.07
2022-09-14T01:50:42.142Z,16.04
2022-09-14T01:52:43.530Z,16.06
2022-09-14T01:54:44.523Z,16.04
2022-09-14T01:56:46.222Z,16.01
2022-09-14T01:58:47.865Z,16.03
2022-09-14T02:00:48.968Z,16.02
2022-09-14T02:02:50.757Z,16.04
2022-09-14T02:04:51.719Z,16.08
2022-09-14T02:06:53.513Z,16.08
2022-09-14T02:08:54.796Z,16.05
2022-09-14T02:10:55.882Z,16.05
2022-09-14T02:12:57.474Z,16.01
2022-09-14T02:14:58.483Z,16.01
2022-09-14T02:16:59.609Z,16.05
2022-09-14T02:19:00.907Z,16.03
2022-09-14T02:21:02.385Z,15.99
2022-09-14T02:23:03.326Z,16.03
2022-09-14T02:25:04.451Z,16.01
2022-09-14T02:27:05.963Z,15.97
2022-09-14T02:29:07.519Z,16.03
2022-09-14T02:31:09.055Z,16.05
2022-09-14T02:33:10.776Z,16.04
2022-09-14T02:35:12.491Z,16.15
2022-09-14T02:37:13.587Z,16.07
2022-09-14T02:39:15.346Z,16.18
2022-09-14T02:41:16.251Z,16.15
2022-09-14T02:43:18.122Z,16.16
2022-09-14T02:45:19.245Z,16.11
2022-09-14T02:47:20.211Z,16.08
2022-09-14T02:49:21.176Z,16.12
2022-09-14T02:51:22.995Z,16.08
2022-09-14T02:53:24.242Z,16.06
2022-09-14T02:55:25.327Z,16.01
2022-09-14T02:57:26.754Z,15.99
2022-09-14T02:59:28.363Z,16.03
2022-09-14T03:01:29.494Z,16.05
2022-09-14T03:03:34.900Z,16.01
2022-09-14T03:05:33.097Z,15.99
2022-09-14T03:07:33.981Z,15.97
2022-09-14T03:09:35.175Z,15.93
2022-09-14T03:11:36.245Z,15.88
2022-09-14T03:13:37.392Z,15.89
2022-09-14T03:15:38.777Z,15.88
2022-09-14T03:17:40.522Z,15.85
2022-09-14T03:19:42.068Z,15.87
2022-09-14T03:21:43.816Z,15.83
2022-09-14T03:23:45.193Z,15.84
2022-09-14T03:25:47.054Z,15.96
2022-09-14T03:27:48.525Z,15.96
2022-09-14T03:29:50.300Z,15.96
2022-09-14T03:31:51.477Z,15.93
2022-09-14T03:33:52.654Z,15.93
2022-09-14T03:35:53.809Z,15.88
2022-09-14T03:37:55.137Z,15.86
2022-09-14T03:39:56.926Z,15.82
2022-09-14T03:41:58.382Z,15.81
2022-09-14T03:43:59.744Z,15.81
2022-09-14T03:48:02.893Z,15.78
2022-09-14T03:50:04.003Z,15.78
2022-09-14T03:52:05.477Z,15.79
2022-09-14T03:54:07.054Z,15.82
2022-09-14T03:56:08.101Z,15.84
2022-09-14T03:58:09.906Z,15.85
2022-09-14T04:00:10.952Z,15.87
2022-09-14T04:02:12.738Z,15.92
2022-09-14T04:04:14.490Z,15.94
2022-09-14T04:06:15.367Z,15.88
2022-09-14T04:08:17.209Z,15.85
2022-09-14T04:10:18.844Z,15.8
2022-09-14T04:12:20.676Z,15.83
2022-09-14T04:14:22.341Z,15.83
2022-09-14T04:16:23.301Z,15.78
2022-09-14T04:18:24.534Z,15.85
2022-09-14T04:20:25.681Z,16.08
2022-09-14T04:22:26.633Z,16.12
2022-09-14T04:24:30.193Z,16.3
2022-09-14T04:26:29.212Z,16.36
2022-09-14T04:30:32.581Z,16.29
2022-09-14T04:32:34.480Z,16.28
2022-09-14T04:34:35.114Z,16.28
2022-09-14T04:36:36.137Z,16.24
2022-09-14T04:38:37.860Z,16.11
2022-09-14T04:40:47.395Z,16.06
2022-09-14T04:42:41.073Z,16.05
2022-09-14T04:44:42.751Z,16.02
2022-09-14T04:46:46.407Z,16.01
2022-09-14T04:48:45.004Z,15.99
2022-09-14T04:50:46.419Z,15.92
2022-09-14T04:52:47.384Z,15.92
2022-09-14T04:54:48.595Z,15.87
2022-09-14T04:56:49.915Z,15.88
2022-09-14T04:58:51.989Z,15.87
2022-09-14T05:00:52.827Z,15.92
2022-09-14T05:02:54.565Z,15.92
2022-09-14T05:04:55.555Z,15.87
2022-09-14T05:06:56.710Z,15.86
2022-09-14T05:08:57.710Z,15.91
2022-09-14T05:10:59.048Z,15.97
2022-09-14T05:13:00.225Z,16.03
2022-09-14T05:15:01.647Z,16.13
2022-09-14T05:17:03.135Z,16.14
2022-09-14T05:19:04.978Z,16.16
2022-09-14T05:21:08.357Z,16.12
2022-09-14T05:23:06.984Z,16.16
2022-09-14T05:25:07.851Z,16.07
2022-09-14T05:27:09.243Z,16.07
2022-09-14T05:29:10.176Z,16.04
2022-09-14T05:31:11.585Z,16
2022-09-14T05:33:12.501Z,16
2022-09-14T05:35:14.221Z,16.04
2022-09-14T05:37:15.151Z,16.04
2022-09-14T05:39:19.856Z,16.01
2022-09-14T05:41:17.941Z,15.93
2022-09-14T05:43:19.556Z,16.04
2022-09-14T05:45:21.356Z,16.03
2022-09-14T05:47:22.307Z,16.05
2022-09-14T05:49:23.995Z,16.12
2022-09-14T05:51:25.352Z,16.11
2022-09-14T05:53:26.913Z,16.15
2022-09-14T05:55:28.559Z,16.23
2022-09-14T05:57:29.914Z,16.26
2022-09-14T05:59:31.656Z,16.23
2022-09-14T06:01:32.836Z,16.28
2022-09-14T06:04:18.272Z,16.33
2022-09-14T06:06:19.151Z,16.33
2022-09-14T06:08:20.114Z,16.31
2022-09-14T06:10:21.089Z,16.31
2022-09-14T06:12:21.990Z,16.31
2022-09-14T06:14:23.776Z,16.35
2022-09-14T06:16:25.232Z,16.36
2022-09-14T06:18:26.869Z,16.36
2022-09-14T06:20:27.806Z,16.35
2022-09-14T06:22:29.223Z,16.42
2022-09-14T06:24:30.651Z,16.45
2022-09-14T06:26:31.783Z,16.5
2022-09-14T06:28:32.789Z,16.5
2022-09-14T06:30:33.859Z,16.56
2022-09-14T06:32:34.906Z,16.64
2022-09-14T06:34:36.367Z,16.66
2022-09-14T06:36:37.322Z,16.64
2022-09-14T06:38:38.757Z,16.63
2022-09-14T06:40:40.117Z,16.62
2022-09-14T06:42:41.462Z,16.68
2022-09-14T06:44:42.743Z,16.74
2022-09-14T06:46:47.462Z,16.76
2022-09-14T06:48:46.092Z,16.77
2022-09-14T06:50:47.170Z,16.81
2022-09-14T06:52:48.280Z,16.81
2022-09-14T06:54:49.324Z,16.85
2022-09-14T06:56:50.262Z,16.9
2022-09-14T06:58:51.446Z,16.91
2022-09-14T07:00:52.579Z,16.94
2022-09-14T07:02:55.666Z,16.97
2022-09-14T07:04:55.571Z,16.96
2022-09-14T07:06:57.174Z,16.99
2022-09-14T07:08:58.710Z,16.97
2022-09-14T07:10:59.909Z,16.97
2022-09-14T07:13:01.395Z,17.02
2022-09-14T07:15:02.253Z,17.02
2022-09-14T07:17:03.352Z,16.96
2022-09-14T07:19:04.932Z,16.94
2022-09-14T07:21:06.140Z,17.01
2022-09-14T07:23:07.001Z,17.02
2022-09-14T07:25:08.307Z,17.02
2022-09-14T07:27:10.061Z,17.02
2022-09-14T07:29:11.434Z,17.05
2022-09-14T07:31:12.456Z,17.05
2022-09-14T07:33:14.138Z,17.04
2022-09-14T07:35:15.041Z,17.06
2022-09-14T07:37:16.007Z,17.09
2022-09-14T07:39:17.397Z,17.07
2022-09-14T07:41:18.755Z,17.13
2022-09-14T07:43:20.301Z,17.23
2022-09-14T07:47:22.885Z,17.25
2022-09-14T07:49:24.097Z,17.33
2022-09-14T07:51:25.338Z,17.32
2022-09-14T07:53:26.546Z,17.31
2022-09-14T07:55:28.405Z,17.34
2022-09-14T07:57:45.684Z,17.42
2022-09-14T07:59:35.888Z,17.47
2022-09-14T08:01:31.903Z,17.49
2022-09-14T08:03:33.650Z,17.51
2022-09-14T08:05:35.042Z,17.48
2022-09-14T08:07:35.941Z,17.5
2022-09-14T08:09:37.375Z,17.51
2022-09-14T08:11:38.596Z,17.56
2022-09-14T08:13:40.417Z,17.59
2022-09-14T08:15:41.340Z,17.64
2022-09-14T08:17:42.387Z,17.62
2022-09-14T08:19:43.804Z,17.7
2022-09-14T08:21:47.006Z,17.74
2022-09-14T08:23:46.482Z,17.74
2022-09-14T08:25:48.101Z,17.75
2022-09-14T08:27:49.797Z,17.75
2022-09-14T08:29:51.107Z,17.7
2022-09-14T08:31:52.277Z,17.77
2022-09-14T08:33:53.557Z,17.78
2022-09-14T08:35:57.657Z,17.81
2022-09-14T08:37:56.600Z,17.73
2022-09-14T08:39:57.494Z,17.79
2022-09-14T08:41:59.190Z,17.79
2022-09-14T08:44:00.837Z,17.77
2022-09-14T08:46:02.022Z,17.77
2022-09-14T08:48:03.424Z,17.81
2022-09-14T08:50:04.518Z,17.84
2022-09-14T08:52:06.373Z,17.8
2022-09-14T08:54:07.333Z,17.87
2022-09-14T08:56:09.003Z,17.88
2022-09-14T08:58:10.042Z,18.02
2022-09-14T09:00:11.822Z,18.1
2022-09-14T09:02:13.657Z,18.03
2022-09-14T09:04:14.809Z,18.03
2022-09-14T09:06:16.037Z,18.04
2022-09-14T09:08:17.298Z,18.12
2022-09-14T09:10:18.777Z,18.18
2022-09-14T09:12:19.699Z,18.09
2022-09-14T09:14:20.947Z,18.12
2022-09-14T09:16:21.865Z,18.25
2022-09-14T09:18:22.916Z,18.28
2022-09-14T09:20:24.544Z,18.36
2022-09-14T09:22:25.930Z,18.29
2022-09-14T09:24:27.642Z,18.27
2022-09-14T09:26:28.942Z,18.3
2022-09-14T09:28:29.900Z,18.3
2022-09-14T09:30:30.838Z,18.27
2022-09-14T09:32:31.920Z,18.33
2022-09-14T09:34:32.932Z,18.29
2022-09-14T09:36:34.427Z,18.25
2022-09-14T09:38:35.753Z,18.22
2022-09-14T09:40:36.550Z,18.2
2022-09-14T09:42:37.833Z,18.22
2022-09-14T09:44:39.129Z,18.17
2022-09-14T09:46:40.728Z,18.17
2022-09-14T09:48:41.913Z,18.21
2022-09-14T09:50:43.719Z,18.21
2022-09-14T09:52:44.613Z,18.24
2022-09-14T09:54:45.902Z,18.25
2022-09-14T09:56:46.954Z,18.29
2022-09-14T09:58:47.942Z,18.34
2022-09-14T10:00:49.402Z,18.34
2022-09-14T10:02:50.468Z,18.38
2022-09-14T10:04:52.231Z,18.4
2022-09-14T10:06:53.241Z,18.44
2022-09-14T10:08:54.082Z,18.51
2022-09-14T10:10:55.092Z,18.56
2022-09-14T10:12:55.982Z,18.72
2022-09-14T10:14:56.872Z,18.84
2022-09-14T10:16:58.434Z,18.99
2022-09-14T10:18:59.536Z,19.11
2022-09-14T10:21:00.996Z,19.2
2022-09-14T10:23:01.815Z,19.21
2022-09-14T10:25:03.091Z,19.35
2022-09-14T10:27:03.964Z,19.45
2022-09-14T10:29:05.167Z,19.49
2022-09-14T10:31:06.568Z,19.45
2022-09-14T10:33:07.622Z,19.44
2022-09-14T10:35:08.961Z,19.52
2022-09-14T10:37:10.057Z,19.6
2022-09-14T10:39:11.856Z,19.7
2022-09-14T10:41:13.480Z,19.76
2022-09-14T10:43:15.153Z,19.63
2022-09-14T10:45:16.307Z,19.53
2022-09-14T10:47:17.575Z,19.6
2022-09-14T10:49:19.238Z,19.74
2022-09-14T10:51:20.338Z,19.86
2022-09-14T10:53:21.460Z,20.05
2022-09-14T10:55:22.785Z,20.27
2022-09-14T10:59:24.645Z,20.43
2022-09-14T11:01:26.217Z,20.46
2022-09-14T11:03:27.720Z,20.48
2022-09-14T11:05:29.382Z,20.53
2022-09-14T11:07:30.372Z,20.35
2022-09-14T11:09:32.090Z,20.43
2022-09-14T11:11:33.366Z,20.41
2022-09-14T11:13:35.753Z,20.58
2022-09-14T11:15:37.121Z,20.84
2022-09-14T11:17:38.165Z,21.06
2022-09-14T11:19:39.333Z,21.12
2022-09-14T11:21:41.083Z,20.8
2022-09-14T11:23:42.709Z,20.87
2022-09-14T11:25:43.940Z,20.86
2022-09-14T11:27:45.456Z,20.91
2022-09-14T11:29:47.142Z,20.94
2022-09-14T11:31:59.166Z,21.06
2022-09-14T11:33:50.439Z,21.37
2022-09-14T11:35:51.905Z,21.86
2022-09-14T11:37:54.302Z,21.92
2022-09-14T11:39:55.711Z,22.44
2022-09-14T11:41:56.620Z,22.48
2022-09-14T11:43:57.717Z,22.31
2022-09-14T11:45:59.335Z,22.26
2022-09-14T11:48:00.665Z,22.52
2022-09-14T11:50:01.517Z,22.79
2022-09-14T11:52:03.869Z,22.82
2022-09-14T11:54:04.716Z,23.01
2022-09-14T11:56:06.283Z,22.84
2022-09-14T11:58:07.620Z,22.88
2022-09-14T12:00:08.942Z,22.9
2022-09-14T12:02:09.749Z,22.86
2022-09-14T12:04:10.672Z,23.08
2022-09-14T12:06:12.128Z,22.86
2022-09-14T12:08:13.481Z,22.8
2022-09-14T12:10:14.331Z,22.58
2022-09-14T12:12:15.176Z,22.91
2022-09-14T12:14:16.478Z,22.79
2022-09-14T12:16:17.690Z,22.83
2022-09-14T12:18:19.289Z,22.91
2022-09-14T12:20:20.535Z,23.14
2022-09-14T12:22:21.597Z,23.57
2022-09-14T12:24:23.138Z,23.3
2022-09-14T12:26:23.907Z,23.36
2022-09-14T12:28:25.045Z,23.24
2022-09-14T12:30:26.511Z,22.86
2022-09-14T12:32:27.295Z,22.82
2022-09-14T12:34:28.454Z,22.82
2022-09-14T12:36:29.720Z,22.74
2022-09-14T12:38:31.503Z,22.65
2022-09-14T12:40:32.537Z,22.77
2022-09-14T12:42:34.030Z,22.61
2022-09-14T12:44:35.720Z,22.57
2022-09-14T12:46:37.074Z,22.66
2022-09-14T12:49:21.544Z,22.63
2022-09-14T12:51:23.066Z,22.82
2022-09-14T12:53:24.813Z,22.79
2022-09-14T12:55:25.988Z,22.8
2022-09-14T12:57:26.845Z,22.77
2022-09-14T12:59:27.870Z,22.61
2022-09-14T13:01:29.497Z,22.53
2022-09-14T13:03:30.740Z,22.48
2022-09-14T13:05:31.573Z,22.46
2022-09-14T13:07:32.756Z,22.44
2022-09-14T13:09:33.895Z,22.36
2022-09-14T13:11:35.127Z,22.42
2022-09-14T13:13:36.152Z,22.38
2022-09-14T13:15:37.683Z,22.29
2022-09-14T13:17:38.669Z,22.31
2022-09-14T13:19:40.307Z,22.23
2022-09-14T13:21:41.822Z,22.19
2022-09-14T13:23:43.452Z,22.15
2022-09-14T13:25:44.584Z,22.1
2022-09-14T13:27:45.646Z,22.05
2022-09-14T13:29:46.631Z,22.01
2022-09-14T13:31:47.783Z,22.06
2022-09-14T13:35:50.690Z,21.92
2022-09-14T13:37:52.380Z,21.88
2022-09-14T13:39:53.528Z,21.83
2022-09-14T13:41:54.307Z,21.81
2022-09-14T13:43:55.897Z,21.81
2022-09-14T13:45:57.277Z,21.73
2022-09-14T13:47:58.368Z,21.76
2022-09-14T13:49:59.732Z,21.72
2022-09-14T13:52:04.629Z,21.68
2022-09-14T13:54:01.712Z,21.68
2022-09-14T13:56:02.933Z,21.65
2022-09-14T13:58:04.601Z,21.65
2022-09-14T14:00:05.509Z,21.63
2022-09-14T14:02:06.401Z,21.57
2022-09-14T14:04:07.328Z,21.54
2022-09-14T14:06:08.222Z,21.43
2022-09-14T14:08:09.922Z,21.4
2022-09-14T14:10:11.443Z,21.34
2022-09-14T14:12:12.331Z,21.3
2022-09-14T14:16:15.059Z,21.06
2022-09-14T14:18:16.300Z,20.94
2022-09-14T14:20:17.836Z,20.85
2022-09-14T14:22:19.460Z,20.81
2022-09-14T14:24:20.443Z,20.69
2022-09-14T14:26:21.711Z,20.31
2022-09-14T14:28:22.969Z,19.61
2022-09-14T14:30:24.201Z,19.05
2022-09-14T14:32:26.023Z,18.8
2022-09-14T14:34:27.524Z,18.72
2022-09-14T14:36:28.424Z,18.55
2022-09-14T14:38:30.180Z,18.51
2022-09-14T14:40:31.921Z,18.35
2022-09-14T14:42:32.903Z,18.28
2022-09-14T14:44:34.460Z,18.26
2022-09-14T14:46:36.340Z,18.19
2022-09-14T14:48:37.600Z,18.14
2022-09-14T14:50:38.721Z,18.07
2022-09-14T14:52:40.150Z,17.97
2022-09-14T14:54:41.041Z,18.07
2022-09-14T14:58:44.091Z,18.05
2022-09-14T15:00:45.527Z,18.14
2022-09-14T15:02:46.622Z,18.11
2022-09-14T15:04:48.194Z,18.04
2022-09-14T15:06:49.092Z,18.03
2022-09-14T15:08:50.452Z,18.02
2022-09-14T15:10:52.066Z,18.02
2022-09-14T15:12:53.398Z,17.95
2022-09-14T15:14:54.342Z,18.01
2022-09-14T15:16:55.443Z,17.97
2022-09-14T15:18:56.801Z,17.97
2022-09-14T15:20:57.882Z,17.97
2022-09-14T15:22:58.867Z,18.05
2022-09-14T15:25:00.399Z,18.08
2022-09-14T15:27:02.022Z,18.08
2022-09-14T15:29:03.435Z,18.15
2022-09-14T15:31:07.645Z,18.27
2022-09-14T15:33:08.097Z,18.33
2022-09-14T15:35:08.306Z,18.44
2022-09-14T15:37:09.123Z,18.55
2022-09-14T15:39:10.403Z,18.53
2022-09-14T15:41:11.497Z,18.61
2022-09-14T15:43:13.164Z,18.71
2022-09-14T15:45:14.860Z,18.75
2022-09-14T15:47:16.151Z,18.77
2022-09-14T15:49:17.097Z,18.77
2022-09-14T15:51:18.218Z,18.79
2022-09-14T15:53:19.870Z,18.81
2022-09-14T15:55:21.325Z,18.85
2022-09-14T15:57:23.107Z,18.81
2022-09-14T15:59:24.457Z,18.81
2022-09-14T16:01:26.039Z,18.82
2022-09-14T16:03:27.572Z,18.74
2022-09-14T16:05:28.539Z,18.82
2022-09-14T16:07:30.293Z,18.83
2022-09-14T16:09:31.638Z,18.79
2022-09-14T16:11:32.654Z,18.83
2022-09-14T16:13:34.045Z,18.78
2022-09-14T16:15:35.498Z,18.81
2022-09-14T16:17:36.660Z,18.81
2022-09-14T16:19:37.624Z,18.79
2022-09-14T16:21:38.579Z,18.77
2022-09-14T16:23:39.572Z,18.8
2022-09-14T16:25:41.204Z,18.81
2022-09-14T16:27:42.707Z,18.81
2022-09-14T16:29:43.759Z,18.74
2022-09-14T16:31:45.332Z,18.73
2022-09-14T16:33:46.829Z,18.75
2022-09-14T16:35:47.918Z,18.76
2022-09-14T16:39:50.728Z,18.67
2022-09-14T16:41:51.862Z,18.62
2022-09-14T16:43:53.529Z,18.58
2022-09-14T16:45:54.720Z,18.58
2022-09-14T16:47:56.166Z,18.58
2022-09-14T16:49:57.912Z,18.57
2022-09-14T16:51:59.332Z,18.53
2022-09-14T16:54:01.039Z,18.5
2022-09-14T16:56:02.358Z,18.51
2022-09-14T16:58:03.338Z,18.47
2022-09-14T17:00:05.174Z,18.51
2022-09-14T17:02:06.636Z,18.55
2022-09-14T17:04:08.175Z,18.48
2022-09-14T17:06:09.023Z,18.5
2022-09-14T17:08:10.567Z,18.46
2022-09-14T17:10:11.592Z,18.47
2022-09-14T17:12:12.464Z,18.53
2022-09-14T17:14:13.629Z,18.46
2022-09-14T17:16:14.711Z,18.47
2022-09-14T17:18:16.003Z,18.5
2022-09-14T17:20:17.518Z,18.47
2022-09-14T17:22:18.617Z,18.43
2022-09-14T17:24:20.447Z,18.53
2022-09-14T17:26:21.375Z,18.5
2022-09-14T17:28:23.214Z,18.42
2022-09-14T17:30:24.714Z,18.39
2022-09-14T17:32:26.053Z,18.41
2022-09-14T17:34:27.207Z,18.36
2022-09-14T17:36:28.576Z,18.27
2022-09-14T17:38:30.324Z,18.17
2022-09-14T17:40:31.378Z,18.15
2022-09-14T17:42:32.372Z,18.18
2022-09-14T17:44:33.261Z,18.21
2022-09-14T17:46:36.556Z,18.09
2022-09-14T17:48:36.206Z,18.17
2022-09-14T17:50:37.598Z,18.13
2022-09-14T17:52:39.365Z,18.05
2022-09-14T17:54:40.294Z,17.98
2022-09-14T17:56:41.155Z,17.86
2022-09-14T17:58:42.894Z,17.81
2022-09-14T18:00:44.268Z,17.79
2022-09-14T18:02:45.870Z,17.85
2022-09-14T18:04:48.491Z,17.85
2022-09-14T18:06:48.510Z,17.96
2022-09-14T18:08:49.973Z,18.05
2022-09-14T18:10:51.685Z,17.93
2022-09-14T18:12:53.543Z,17.98
2022-09-14T18:14:55.209Z,17.92
2022-09-14T18:16:57.034Z,17.86
2022-09-14T18:18:58.183Z,17.93
2022-09-14T18:20:59.911Z,17.92
2022-09-14T18:23:01.439Z,17.92
2022-09-14T18:25:03.149Z,17.92
2022-09-14T18:27:04.361Z,17.91
2022-09-14T18:29:06.083Z,17.9
2022-09-14T18:31:08.023Z,17.89
2022-09-14T18:33:09.638Z,17.89
2022-09-14T18:35:10.751Z,17.87
2022-09-14T18:37:12.379Z,17.82
2022-09-14T18:39:14.148Z,17.84
2022-09-14T18:41:15.069Z,17.94
2022-09-14T18:43:16.768Z,18.04
2022-09-14T18:45:17.935Z,17.93
2022-09-14T18:47:19.695Z,17.89
2022-09-14T18:49:20.927Z,17.9
2022-09-14T18:51:21.964Z,17.88
2022-09-14T18:53:23.172Z,17.8
2022-09-14T18:55:24.668Z,17.77
2022-09-14T18:57:25.664Z,17.71
2022-09-14T18:59:26.567Z,17.68
2022-09-14T19:03:30.011Z,17.68
2022-09-14T19:05:31.152Z,17.64
2022-09-14T19:07:32.922Z,17.66
2022-09-14T19:09:34.741Z,17.59
2022-09-14T19:11:36.224Z,17.62
2022-09-14T19:13:37.384Z,17.69
2022-09-14T19:15:39.272Z,17.75
2022-09-14T19:17:40.289Z,17.79
2022-09-14T19:19:41.541Z,17.8
2022-09-14T19:21:42.869Z,17.85
2022-09-14T19:23:44.683Z,17.85
2022-09-14T19:25:46.383Z,17.82
2022-09-14T19:27:47.303Z,17.85
2022-09-14T19:29:48.262Z,17.81
2022-09-14T19:31:50.772Z,17.78
2022-09-14T19:34:35.067Z,17.78
2022-09-14T19:36:36.733Z,17.73
2022-09-14T19:38:38.550Z,17.71
2022-09-14T19:40:40.232Z,17.74
2022-09-14T19:42:42.074Z,17.75
2022-09-14T19:44:43.428Z,17.8
2022-09-14T19:46:45.001Z,17.82
2022-09-14T19:48:46.392Z,17.8
2022-09-14T19:50:47.302Z,17.79
2022-09-14T19:52:48.788Z,17.79
2022-09-14T19:54:49.728Z,17.78
2022-09-14T19:56:56.023Z,17.76
2022-09-14T19:58:52.087Z,17.81
2022-09-14T20:00:53.831Z,17.86
2022-09-14T20:02:55.172Z,17.85
2022-09-14T20:04:55.996Z,17.83
2022-09-14T20:06:56.969Z,17.85
2022-09-14T20:08:58.500Z,17.89
2022-09-14T20:10:59.922Z,17.85
2022-09-14T20:13:01.204Z,17.8
2022-09-14T20:15:02.914Z,17.79
2022-09-14T20:17:13.573Z,17.79
2022-09-14T20:19:14.557Z,17.77
2022-09-14T20:21:06.834Z,17.75
2022-09-14T20:23:07.913Z,17.8
2022-09-14T20:25:09.621Z,17.78
2022-09-14T20:27:10.825Z,17.84
2022-09-14T20:29:12.007Z,18
2022-09-14T20:31:12.933Z,17.99
2022-09-14T20:33:14.417Z,17.99
2022-09-14T20:35:15.695Z,18.01
2022-09-14T20:37:17.370Z,17.96
2022-09-14T20:39:18.512Z,18
2022-09-14T20:41:19.364Z,17.96
2022-09-14T20:43:20.276Z,17.98
2022-09-14T20:45:22.131Z,18.07
2022-09-14T20:47:23.223Z,18.05
2022-09-14T20:49:24.679Z,17.99
2022-09-14T20:51:25.826Z,17.95
2022-09-14T20:53:26.751Z,17.87
2022-09-14T20:55:28.152Z,17.84
2022-09-14T20:57:29.693Z,17.85
2022-09-14T20:59:30.857Z,17.81
2022-09-14T21:01:32.684Z,17.85
2022-09-14T21:03:34.362Z,17.87
2022-09-14T21:05:36.357Z,17.86
2022-09-14T21:07:37.042Z,17.85
2022-09-14T21:09:38.025Z,17.82
2022-09-14T21:11:39.262Z,17.8
2022-09-14T21:13:40.945Z,17.81
2022-09-14T21:15:42.193Z,17.79
2022-09-14T21:17:43.861Z,17.76
2022-09-14T21:21:46.439Z,17.73
2022-09-14T21:23:48.462Z,17.69
2022-09-14T21:25:49.797Z,17.66
2022-09-14T21:27:51.187Z,17.77
2022-09-14T21:29:52.932Z,17.82
2022-09-14T21:31:54.551Z,17.84
2022-09-14T21:33:55.873Z,17.88
2022-09-14T21:35:56.840Z,17.86
2022-09-14T21:37:58.491Z,17.83
2022-09-14T21:39:59.805Z,17.82
2022-09-14T21:42:01.206Z,17.8
2022-09-14T21:44:02.207Z,17.77
2022-09-14T21:46:03.658Z,17.75
2022-09-14T21:48:05.433Z,17.66
2022-09-14T21:50:06.374Z,17.71
2022-09-14T21:52:08.908Z,17.65
2022-09-14T21:54:09.252Z,17.63
2022-09-14T21:56:10.280Z,17.58
2022-09-14T21:58:11.266Z,17.61
2022-09-14T22:00:20.192Z,17.57
2022-09-14T22:02:14.017Z,17.59
2022-09-14T22:04:15.712Z,17.57
2022-09-14T22:06:16.621Z,17.57
2022-09-14T22:08:18.157Z,17.58
2022-09-14T22:10:19.445Z,17.64
2022-09-14T22:12:20.456Z,17.62
2022-09-14T22:14:21.554Z,17.6
2022-09-14T22:16:23.386Z,17.57
2022-09-14T22:18:24.381Z,17.57
2022-09-14T22:20:26.052Z,17.56
2022-09-14T22:22:27.444Z,17.59
2022-09-14T22:24:30.439Z,17.59
2022-09-14T22:26:29.516Z,17.57
2022-09-14T22:28:31.087Z,17.56
2022-09-14T22:30:32.803Z,17.54
2022-09-14T22:32:33.866Z,17.59
2022-09-14T22:34:35.211Z,17.54
2022-09-14T22:36:36.742Z,17.53
2022-09-14T22:38:38.302Z,17.53
2022-09-14T22:40:39.315Z,17.59
2022-09-14T22:42:40.901Z,17.54
2022-09-14T22:44:41.959Z,17.53
2022-09-14T22:46:43.358Z,17.47
2022-09-14T22:48:45.084Z,17.49
2022-09-14T22:50:46.222Z,17.48
2022-09-14T22:52:47.168Z,17.47
2022-09-14T22:54:48.067Z,17.47
2022-09-14T22:56:49.491Z,17.43
2022-09-14T22:58:50.581Z,17.41
2022-09-14T23:00:51.992Z,17.4
2022-09-14T23:02:53.759Z,17.44
2022-09-14T23:04:54.985Z,17.35
2022-09-14T23:06:56.015Z,17.38
2022-09-14T23:08:57.695Z,17.35
2022-09-14T23:10:58.907Z,17.33
2022-09-14T23:13:00.029Z,17.33
2022-09-14T23:15:00.962Z,17.33
2022-09-14T23:17:02.789Z,17.31
2022-09-14T23:19:04.384Z,17.3
2022-09-14T23:21:05.614Z,17.29
2022-09-14T23:23:06.812Z,17.28
2022-09-14T23:25:08.542Z,17.31
2022-09-14T23:27:09.842Z,17.32
2022-09-14T23:29:11.468Z,17.32
2022-09-14T23:31:12.435Z,17.33
2022-09-14T23:33:14.218Z,17.33
2022-09-14T23:35:15.203Z,17.35
2022-09-14T23:37:16.756Z,17.37
2022-09-14T23:39:18.278Z,17.37
2022-09-14T23:41:19.452Z,17.38
2022-09-14T23:45:22.438Z,17.39
2022-09-14T23:47:23.367Z,17.4
2022-09-14T23:49:24.608Z,17.34
2022-09-14T23:51:26.250Z,17.32
2022-09-14T23:53:27.301Z,17.31
2022-09-14T23:55:28.860Z,17.25
2022-09-14T23:57:30.591Z,17.18
2022-09-14T23:59:32.071Z,17.18
